sensor_id;sensor_type;location;lat;lon;timestamp;P1;durP1;ratioP1;P2;durP2;ratioP2
71814;SDS011;59659;41.520;23.794;2024-01-25T05:55:46;43.42;;;16.45;;
71814;SDS011;59659;41.520;23.794;2024-01-25T05:56:58;21.05;;;9.75;;
71814;SDS011;59659;41.520;23.794;2024-01-25T05:58:09;15.70;;;9.25;;
71814;SDS011;59659;41.520;23.794;2024-01-25T05:59:21;16.95;;;8.07;;
71814;SDS011;59659;41.520;23.794;2024-01-25T06:00:33;18.98;;;9.20;;
71814;SDS011;59659;41.520;23.794;2024-01-25T06:01:45;27.58;;;12.25;;
71814;SDS011;59659;41.520;23.794;2024-01-25T06:02:57;28.25;;;13.68;;
71814;SDS011;59659;41.520;23.794;2024-01-25T06:04:08;70.90;;;23.40;;
71814;SDS011;59659;41.520;23.794;2024-01-25T06:05:20;252.00;;;82.68;;
71814;SDS011;59659;41.520;23.794;2024-01-25T06:06:32;359.33;;;114.75;;
71814;SDS011;59659;41.520;23.794;2024-01-25T06:07:44;99.50;;;36.53;;
71814;SDS011;59659;41.520;23.794;2024-01-25T06:08:56;43.88;;;16.90;;
71814;SDS011;59659;41.520;23.794;2024-01-25T06:10:21;47.35;;;14.38;;
71814;SDS011;59659;41.520;23.794;2024-01-25T06:11:33;29.05;;;10.60;;
71814;SDS011;59659;41.520;23.794;2024-01-25T06:12:46;23.80;;;8.65;;
71814;SDS011;59659;41.520;23.794;2024-01-25T06:13:58;11.45;;;5.28;;
71814;SDS011;59659;41.520;23.794;2024-01-25T06:15:10;19.52;;;9.00;;
71814;SDS011;59659;41.520;23.794;2024-01-25T06:16:21;47.50;;;29.15;;
71814;SDS011;59659;41.520;23.794;2024-01-25T06:17:33;143.73;;;53.75;;
71814;SDS011;59659;41.520;23.794;2024-01-25T06:18:45;11.10;;;6.53;;
71814;SDS011;59659;41.520;23.794;2024-01-25T06:19:56;19.90;;;5.78;;
71814;SDS011;59659;41.520;23.794;2024-01-25T06:21:08;198.40;;;65.50;;
71814;SDS011;59659;41.520;23.794;2024-01-25T06:22:20;286.75;;;87.57;;
71814;SDS011;59659;41.520;23.794;2024-01-25T06:23:31;110.55;;;38.17;;
71814;SDS011;59659;41.520;23.794;2024-01-25T06:24:43;71.03;;;30.42;;
71814;SDS011;59659;41.520;23.794;2024-01-25T06:25:55;66.38;;;23.80;;
71814;SDS011;59659;41.520;23.794;2024-01-25T06:27:06;122.75;;;46.97;;
71814;SDS011;59659;41.520;23.794;2024-01-25T06:28:18;49.08;;;23.35;;
71814;SDS011;59659;41.520;23.794;2024-01-25T06:29:30;44.30;;;20.83;;
71814;SDS011;59659;41.520;23.794;2024-01-25T06:30:42;55.05;;;29.23;;
71814;SDS011;59659;41.520;23.794;2024-01-25T06:31:53;74.78;;;32.85;;
71814;SDS011;59659;41.520;23.794;2024-01-25T06:33:05;29.67;;;13.95;;
71814;SDS011;59659;41.520;23.794;2024-01-25T06:34:17;22.67;;;11.27;;
71814;SDS011;59659;41.520;23.794;2024-01-25T06:35:28;16.98;;;9.32;;
71814;SDS011;59659;41.520;23.794;2024-01-25T06:36:40;50.08;;;21.73;;
71814;SDS011;59659;41.520;23.794;2024-01-25T06:37:52;28.73;;;14.18;;
71814;SDS011;59659;41.520;23.794;2024-01-25T06:39:03;23.05;;;12.30;;
71814;SDS011;59659;41.520;23.794;2024-01-25T06:40:18;17.50;;;11.40;;
71814;SDS011;59659;41.520;23.794;2024-01-25T06:41:30;31.88;;;16.70;;
71814;SDS011;59659;41.520;23.794;2024-01-25T06:42:41;28.65;;;13.88;;
71814;SDS011;59659;41.520;23.794;2024-01-25T06:43:54;26.33;;;14.13;;
71814;SDS011;59659;41.520;23.794;2024-01-25T06:45:05;39.00;;;20.50;;
71814;SDS011;59659;41.520;23.794;2024-01-25T06:46:17;36.15;;;20.33;;
71814;SDS011;59659;41.520;23.794;2024-01-25T06:47:28;30.23;;;16.15;;
71814;SDS011;59659;41.520;23.794;2024-01-25T06:48:40;32.15;;;13.02;;
71814;SDS011;59659;41.520;23.794;2024-01-25T06:49:52;21.60;;;12.68;;
71814;SDS011;59659;41.520;23.794;2024-01-25T06:51:04;25.77;;;13.75;;
71814;SDS011;59659;41.520;23.794;2024-01-25T06:52:15;23.25;;;14.43;;
71814;SDS011;59659;41.520;23.794;2024-01-25T06:53:27;23.75;;;12.98;;
71814;SDS011;59659;41.520;23.794;2024-01-25T06:54:39;20.58;;;10.45;;
71814;SDS011;59659;41.520;23.794;2024-01-25T06:55:51;23.35;;;11.48;;
71814;SDS011;59659;41.520;23.794;2024-01-25T06:57:02;21.88;;;12.10;;
71814;SDS011;59659;41.520;23.794;2024-01-25T06:58:14;25.38;;;12.93;;
71814;SDS011;59659;41.520;23.794;2024-01-25T06:59:26;32.22;;;14.23;;
71814;SDS011;59659;41.520;23.794;2024-01-25T07:00:38;22.70;;;11.77;;
71814;SDS011;59659;41.520;23.794;2024-01-25T07:01:51;30.25;;;13.10;;
71814;SDS011;59659;41.520;23.794;2024-01-25T07:03:03;19.73;;;11.13;;
71814;SDS011;59659;41.520;23.794;2024-01-25T07:04:15;20.65;;;10.30;;
71814;SDS011;59659;41.520;23.794;2024-01-25T07:05:27;28.70;;;13.35;;
71814;SDS011;59659;41.520;23.794;2024-01-25T07:06:41;26.67;;;14.32;;
71814;SDS011;59659;41.520;23.794;2024-01-25T07:07:53;29.05;;;15.35;;
71814;SDS011;59659;41.520;23.794;2024-01-25T07:09:04;32.78;;;17.48;;
71814;SDS011;59659;41.520;23.794;2024-01-25T07:10:16;30.52;;;14.88;;
71814;SDS011;59659;41.520;23.794;2024-01-25T07:11:27;25.70;;;13.70;;
71814;SDS011;59659;41.520;23.794;2024-01-25T07:12:39;46.70;;;21.42;;
71814;SDS011;59659;41.520;23.794;2024-01-25T07:13:51;35.00;;;17.40;;
71814;SDS011;59659;41.520;23.794;2024-01-25T07:15:03;27.30;;;11.75;;
71814;SDS011;59659;41.520;23.794;2024-01-25T07:16:15;25.38;;;14.35;;
71814;SDS011;59659;41.520;23.794;2024-01-25T07:17:27;24.08;;;14.02;;
71814;SDS011;59659;41.520;23.794;2024-01-25T07:18:39;28.92;;;15.65;;
71814;SDS011;59659;41.520;23.794;2024-01-25T07:19:51;41.78;;;15.70;;
71814;SDS011;59659;41.520;23.794;2024-01-25T07:21:02;22.27;;;11.75;;
71814;SDS011;59659;41.520;23.794;2024-01-25T07:22:14;25.58;;;10.85;;
71814;SDS011;59659;41.520;23.794;2024-01-25T07:23:28;22.55;;;11.45;;
71814;SDS011;59659;41.520;23.794;2024-01-25T07:24:40;20.88;;;11.27;;
71814;SDS011;59659;41.520;23.794;2024-01-25T07:25:52;27.73;;;12.90;;
71814;SDS011;59659;41.520;23.794;2024-01-25T07:27:04;20.55;;;11.63;;
71814;SDS011;59659;41.520;23.794;2024-01-25T07:28:18;21.83;;;10.45;;
71814;SDS011;59659;41.520;23.794;2024-01-25T07:29:29;23.60;;;12.73;;
71814;SDS011;59659;41.520;23.794;2024-01-25T07:30:41;27.90;;;12.75;;
71814;SDS011;59659;41.520;23.794;2024-01-25T07:31:53;75.55;;;31.92;;
71814;SDS011;59659;41.520;23.794;2024-01-25T07:33:04;34.72;;;16.23;;
71814;SDS011;59659;41.520;23.794;2024-01-25T07:34:16;25.58;;;15.23;;
71814;SDS011;59659;41.520;23.794;2024-01-25T07:35:27;34.88;;;16.27;;
71814;SDS011;59659;41.520;23.794;2024-01-25T07:36:39;30.10;;;15.82;;
71814;SDS011;59659;41.520;23.794;2024-01-25T07:37:51;30.50;;;15.05;;
71814;SDS011;59659;41.520;23.794;2024-01-25T07:39:02;23.58;;;14.25;;
71814;SDS011;59659;41.520;23.794;2024-01-25T07:40:14;41.20;;;15.13;;
71814;SDS011;59659;41.520;23.794;2024-01-25T07:41:26;34.97;;;16.77;;
71814;SDS011;59659;41.520;23.794;2024-01-25T07:42:38;34.85;;;13.23;;
71814;SDS011;59659;41.520;23.794;2024-01-25T07:43:49;23.35;;;11.60;;
71814;SDS011;59659;41.520;23.794;2024-01-25T07:45:01;22.98;;;11.10;;
71814;SDS011;59659;41.520;23.794;2024-01-25T07:46:13;23.92;;;10.20;;
71814;SDS011;59659;41.520;23.794;2024-01-25T07:47:26;17.70;;;9.95;;
71814;SDS011;59659;41.520;23.794;2024-01-25T07:48:38;19.13;;;12.23;;
71814;SDS011;59659;41.520;23.794;2024-01-25T07:49:50;28.88;;;18.35;;
71814;SDS011;59659;41.520;23.794;2024-01-25T07:51:02;32.67;;;13.65;;
71814;SDS011;59659;41.520;23.794;2024-01-25T07:52:14;26.23;;;13.77;;
71814;SDS011;59659;41.520;23.794;2024-01-25T07:53:26;29.90;;;13.05;;
71814;SDS011;59659;41.520;23.794;2024-01-25T07:54:37;40.05;;;15.77;;
71814;SDS011;59659;41.520;23.794;2024-01-25T07:55:49;25.38;;;12.77;;
71814;SDS011;59659;41.520;23.794;2024-01-25T07:57:01;22.45;;;14.15;;
71814;SDS011;59659;41.520;23.794;2024-01-25T07:58:14;29.27;;;12.55;;
71814;SDS011;59659;41.520;23.794;2024-01-25T07:59:25;29.05;;;14.20;;
71814;SDS011;59659;41.520;23.794;2024-01-25T08:00:37;22.35;;;11.02;;
71814;SDS011;59659;41.520;23.794;2024-01-25T08:01:49;25.20;;;12.25;;
71814;SDS011;59659;41.520;23.794;2024-01-25T08:03:02;21.77;;;14.50;;
71814;SDS011;59659;41.520;23.794;2024-01-25T08:04:13;23.98;;;12.10;;
71814;SDS011;59659;41.520;23.794;2024-01-25T08:05:25;16.27;;;10.77;;
71814;SDS011;59659;41.520;23.794;2024-01-25T08:06:51;24.15;;;12.07;;
71814;SDS011;59659;41.520;23.794;2024-01-25T08:08:03;19.67;;;10.45;;
71814;SDS011;59659;41.520;23.794;2024-01-25T08:09:15;26.00;;;11.25;;
71814;SDS011;59659;41.520;23.794;2024-01-25T08:10:26;19.30;;;10.52;;
71814;SDS011;59659;41.520;23.794;2024-01-25T08:11:38;26.52;;;15.05;;
71814;SDS011;59659;41.520;23.794;2024-01-25T08:12:50;27.23;;;13.48;;
71814;SDS011;59659;41.520;23.794;2024-01-25T08:14:09;21.95;;;12.50;;
71814;SDS011;59659;41.520;23.794;2024-01-25T08:15:22;22.83;;;12.80;;
71814;SDS011;59659;41.520;23.794;2024-01-25T08:16:35;24.73;;;12.70;;
71814;SDS011;59659;41.520;23.794;2024-01-25T08:17:46;22.88;;;13.63;;
71814;SDS011;59659;41.520;23.794;2024-01-25T08:18:58;26.70;;;14.73;;
71814;SDS011;59659;41.520;23.794;2024-01-25T08:20:11;28.23;;;13.80;;
71814;SDS011;59659;41.520;23.794;2024-01-25T08:21:24;27.08;;;14.07;;
71814;SDS011;59659;41.520;23.794;2024-01-25T08:22:36;33.95;;;15.15;;
71814;SDS011;59659;41.520;23.794;2024-01-25T08:23:48;28.02;;;15.98;;
71814;SDS011;59659;41.520;23.794;2024-01-25T08:24:59;30.75;;;17.00;;
71814;SDS011;59659;41.520;23.794;2024-01-25T08:26:11;38.92;;;17.58;;
71814;SDS011;59659;41.520;23.794;2024-01-25T08:27:24;32.67;;;16.13;;
71814;SDS011;59659;41.520;23.794;2024-01-25T08:28:36;39.30;;;17.90;;
71814;SDS011;59659;41.520;23.794;2024-01-25T08:29:47;35.78;;;17.05;;
71814;SDS011;59659;41.520;23.794;2024-01-25T08:30:59;39.28;;;18.42;;
71814;SDS011;59659;41.520;23.794;2024-01-25T08:32:10;30.88;;;15.57;;
71814;SDS011;59659;41.520;23.794;2024-01-25T08:33:22;26.63;;;15.07;;
71814;SDS011;59659;41.520;23.794;2024-01-25T08:34:36;36.67;;;18.35;;
71814;SDS011;59659;41.520;23.794;2024-01-25T08:35:47;27.15;;;15.32;;
71814;SDS011;59659;41.520;23.794;2024-01-25T08:36:59;27.92;;;14.68;;
71814;SDS011;59659;41.520;23.794;2024-01-25T08:38:11;34.70;;;17.55;;
71814;SDS011;59659;41.520;23.794;2024-01-25T08:39:22;31.08;;;17.17;;
71814;SDS011;59659;41.520;23.794;2024-01-25T08:40:34;31.60;;;16.00;;
71814;SDS011;59659;41.520;23.794;2024-01-25T08:41:46;30.08;;;16.60;;
71814;SDS011;59659;41.520;23.794;2024-01-25T08:43:00;33.90;;;18.48;;
71814;SDS011;59659;41.520;23.794;2024-01-25T08:44:12;23.33;;;13.48;;
71814;SDS011;59659;41.520;23.794;2024-01-25T08:45:23;31.05;;;16.27;;
71814;SDS011;59659;41.520;23.794;2024-01-25T08:46:35;28.42;;;12.50;;
71814;SDS011;59659;41.520;23.794;2024-01-25T08:47:47;27.17;;;13.35;;
71814;SDS011;59659;41.520;23.794;2024-01-25T08:49:00;22.20;;;12.38;;
71814;SDS011;59659;41.520;23.794;2024-01-25T08:50:12;29.33;;;13.52;;
71814;SDS011;59659;41.520;23.794;2024-01-25T08:51:24;30.25;;;13.93;;
71814;SDS011;59659;41.520;23.794;2024-01-25T08:52:36;33.53;;;13.18;;
71814;SDS011;59659;41.520;23.794;2024-01-25T08:53:48;32.90;;;15.85;;
71814;SDS011;59659;41.520;23.794;2024-01-25T08:55:02;27.05;;;12.43;;
71814;SDS011;59659;41.520;23.794;2024-01-25T08:56:13;38.58;;;15.25;;
71814;SDS011;59659;41.520;23.794;2024-01-25T08:57:26;24.95;;;12.40;;
71814;SDS011;59659;41.520;23.794;2024-01-25T08:58:37;28.15;;;13.70;;
71814;SDS011;59659;41.520;23.794;2024-01-25T08:59:49;20.58;;;10.30;;
71814;SDS011;59659;41.520;23.794;2024-01-25T09:01:00;25.42;;;10.77;;
71814;SDS011;59659;41.520;23.794;2024-01-25T09:02:12;18.85;;;10.75;;
71814;SDS011;59659;41.520;23.794;2024-01-25T09:03:25;18.30;;;10.88;;
71814;SDS011;59659;41.520;23.794;2024-01-25T09:04:37;23.92;;;9.10;;
71814;SDS011;59659;41.520;23.794;2024-01-25T09:05:49;19.13;;;9.95;;
71814;SDS011;59659;41.520;23.794;2024-01-25T09:07:02;21.27;;;11.20;;
71814;SDS011;59659;41.520;23.794;2024-01-25T09:08:14;20.38;;;9.98;;
71814;SDS011;59659;41.520;23.794;2024-01-25T09:09:26;23.38;;;12.55;;
71814;SDS011;59659;41.520;23.794;2024-01-25T09:10:38;15.63;;;9.25;;
71814;SDS011;59659;41.520;23.794;2024-01-25T09:11:50;21.08;;;12.35;;
71814;SDS011;59659;41.520;23.794;2024-01-25T09:13:02;26.75;;;12.27;;
71814;SDS011;59659;41.520;23.794;2024-01-25T09:14:13;25.13;;;11.68;;
71814;SDS011;59659;41.520;23.794;2024-01-25T09:15:25;23.13;;;11.55;;
71814;SDS011;59659;41.520;23.794;2024-01-25T09:16:36;35.50;;;13.43;;
71814;SDS011;59659;41.520;23.794;2024-01-25T09:17:50;26.92;;;12.85;;
71814;SDS011;59659;41.520;23.794;2024-01-25T09:19:01;28.88;;;11.57;;
71814;SDS011;59659;41.520;23.794;2024-01-25T09:20:13;21.40;;;12.25;;
71814;SDS011;59659;41.520;23.794;2024-01-25T09:21:25;24.75;;;14.82;;
71814;SDS011;59659;41.520;23.794;2024-01-25T09:22:36;28.40;;;13.50;;
71814;SDS011;59659;41.520;23.794;2024-01-25T09:23:48;30.33;;;13.65;;
71814;SDS011;59659;41.520;23.794;2024-01-25T09:25:00;26.58;;;15.57;;
71814;SDS011;59659;41.520;23.794;2024-01-25T09:26:12;37.33;;;15.65;;
71814;SDS011;59659;41.520;23.794;2024-01-25T09:27:24;29.60;;;16.35;;
71814;SDS011;59659;41.520;23.794;2024-01-25T09:28:35;24.13;;;11.07;;
71814;SDS011;59659;41.520;23.794;2024-01-25T09:29:47;20.92;;;11.35;;
71814;SDS011;59659;41.520;23.794;2024-01-25T09:30:59;22.08;;;10.20;;
71814;SDS011;59659;41.520;23.794;2024-01-25T09:32:11;26.83;;;11.68;;
71814;SDS011;59659;41.520;23.794;2024-01-25T09:33:22;18.75;;;10.65;;
71814;SDS011;59659;41.520;23.794;2024-01-25T09:34:34;27.45;;;11.40;;
71814;SDS011;59659;41.520;23.794;2024-01-25T09:35:48;18.92;;;9.85;;
71814;SDS011;59659;41.520;23.794;2024-01-25T09:37:01;25.23;;;11.32;;
71814;SDS011;59659;41.520;23.794;2024-01-25T09:38:13;25.25;;;11.55;;
71814;SDS011;59659;41.520;23.794;2024-01-25T09:39:25;23.08;;;11.23;;
71814;SDS011;59659;41.520;23.794;2024-01-25T09:40:37;25.15;;;10.98;;
71814;SDS011;59659;41.520;23.794;2024-01-25T09:41:49;25.65;;;12.15;;
71814;SDS011;59659;41.520;23.794;2024-01-25T09:43:01;30.17;;;13.13;;
71814;SDS011;59659;41.520;23.794;2024-01-25T09:44:12;27.75;;;12.60;;
71814;SDS011;59659;41.520;23.794;2024-01-25T09:45:24;31.67;;;13.52;;
71814;SDS011;59659;41.520;23.794;2024-01-25T09:46:36;25.50;;;12.60;;
71814;SDS011;59659;41.520;23.794;2024-01-25T09:47:48;27.80;;;13.40;;
71814;SDS011;59659;41.520;23.794;2024-01-25T09:49:01;24.27;;;12.32;;
71814;SDS011;59659;41.520;23.794;2024-01-25T09:50:13;27.25;;;13.82;;
71814;SDS011;59659;41.520;23.794;2024-01-25T09:51:25;24.38;;;11.48;;
71814;SDS011;59659;41.520;23.794;2024-01-25T09:52:37;19.85;;;10.95;;
71814;SDS011;59659;41.520;23.794;2024-01-25T09:53:49;27.10;;;10.80;;
71814;SDS011;59659;41.520;23.794;2024-01-25T09:55:02;25.75;;;14.02;;
71814;SDS011;59659;41.520;23.794;2024-01-25T09:56:17;24.05;;;11.05;;
71814;SDS011;59659;41.520;23.794;2024-01-25T09:57:30;25.08;;;12.35;;
71814;SDS011;59659;41.520;23.794;2024-01-25T09:58:43;25.15;;;12.32;;
71814;SDS011;59659;41.520;23.794;2024-01-25T09:59:57;28.30;;;13.18;;
71814;SDS011;59659;41.520;23.794;2024-01-25T10:01:09;18.80;;;11.10;;
71814;SDS011;59659;41.520;23.794;2024-01-25T10:02:22;24.33;;;12.00;;
71814;SDS011;59659;41.520;23.794;2024-01-25T10:03:34;29.38;;;11.73;;
71814;SDS011;59659;41.520;23.794;2024-01-25T10:04:49;21.38;;;10.98;;
71814;SDS011;59659;41.520;23.794;2024-01-25T10:06:03;25.98;;;12.70;;
71814;SDS011;59659;41.520;23.794;2024-01-25T10:07:16;23.40;;;12.77;;
71814;SDS011;59659;41.520;23.794;2024-01-25T10:08:28;18.33;;;10.70;;
71814;SDS011;59659;41.520;23.794;2024-01-25T10:09:40;30.13;;;13.63;;
71814;SDS011;59659;41.520;23.794;2024-01-25T10:10:52;41.92;;;15.75;;
71814;SDS011;59659;41.520;23.794;2024-01-25T10:12:04;27.85;;;14.23;;
71814;SDS011;59659;41.520;23.794;2024-01-25T10:13:28;24.73;;;12.40;;
71814;SDS011;59659;41.520;23.794;2024-01-25T10:14:40;23.48;;;11.90;;
71814;SDS011;59659;41.520;23.794;2024-01-25T10:15:52;37.33;;;16.85;;
71814;SDS011;59659;41.520;23.794;2024-01-25T10:17:03;31.63;;;17.83;;
71814;SDS011;59659;41.520;23.794;2024-01-25T10:18:15;21.48;;;11.68;;
71814;SDS011;59659;41.520;23.794;2024-01-25T10:19:43;23.38;;;12.07;;
71814;SDS011;59659;41.520;23.794;2024-01-25T10:20:55;28.05;;;14.88;;
71814;SDS011;59659;41.520;23.794;2024-01-25T10:22:07;37.70;;;16.10;;
71814;SDS011;59659;41.520;23.794;2024-01-25T10:23:21;39.05;;;18.80;;
71814;SDS011;59659;41.520;23.794;2024-01-25T10:24:34;45.95;;;24.75;;
71814;SDS011;59659;41.520;23.794;2024-01-25T10:25:46;36.45;;;18.15;;
71814;SDS011;59659;41.520;23.794;2024-01-25T10:26:58;36.10;;;20.58;;
71814;SDS011;59659;41.520;23.794;2024-01-25T10:28:10;36.72;;;20.23;;
71814;SDS011;59659;41.520;23.794;2024-01-25T10:29:25;34.08;;;16.42;;
71814;SDS011;59659;41.520;23.794;2024-01-25T10:30:37;30.30;;;14.23;;
71814;SDS011;59659;41.520;23.794;2024-01-25T10:31:49;30.42;;;14.90;;
71814;SDS011;59659;41.520;23.794;2024-01-25T10:33:02;35.72;;;16.48;;
71814;SDS011;59659;41.520;23.794;2024-01-25T10:34:14;31.98;;;16.08;;
71814;SDS011;59659;41.520;23.794;2024-01-25T10:35:27;30.20;;;15.15;;
71814;SDS011;59659;41.520;23.794;2024-01-25T10:36:40;30.55;;;15.82;;
71814;SDS011;59659;41.520;23.794;2024-01-25T10:37:52;31.48;;;14.70;;
71814;SDS011;59659;41.520;23.794;2024-01-25T10:39:04;26.70;;;14.23;;
71814;SDS011;59659;41.520;23.794;2024-01-25T10:40:19;30.75;;;12.95;;
71814;SDS011;59659;41.520;23.794;2024-01-25T10:41:31;26.33;;;14.35;;
71814;SDS011;59659;41.520;23.794;2024-01-25T10:42:44;27.30;;;14.85;;
71814;SDS011;59659;41.520;23.794;2024-01-25T10:43:55;22.48;;;12.68;;
71814;SDS011;59659;41.520;23.794;2024-01-25T10:45:07;20.75;;;12.82;;
71814;SDS011;59659;41.520;23.794;2024-01-25T10:46:19;20.33;;;9.80;;
71814;SDS011;59659;41.520;23.794;2024-01-25T10:47:31;77.82;;;31.90;;
71814;SDS011;59659;41.520;23.794;2024-01-25T10:48:47;23.15;;;9.50;;
71814;SDS011;59659;41.520;23.794;2024-01-25T10:49:59;28.52;;;13.85;;
71814;SDS011;59659;41.520;23.794;2024-01-25T10:51:11;19.17;;;10.93;;
71814;SDS011;59659;41.520;23.794;2024-01-25T10:52:27;27.45;;;14.73;;
71814;SDS011;59659;41.520;23.794;2024-01-25T10:53:38;22.73;;;12.95;;
71814;SDS011;59659;41.520;23.794;2024-01-25T10:54:50;27.45;;;14.82;;
71814;SDS011;59659;41.520;23.794;2024-01-25T10:56:03;28.67;;;15.40;;
71814;SDS011;59659;41.520;23.794;2024-01-25T10:57:15;30.70;;;13.15;;
71814;SDS011;59659;41.520;23.794;2024-01-25T10:58:30;21.13;;;12.88;;
71814;SDS011;59659;41.520;23.794;2024-01-25T10:59:46;17.13;;;9.57;;
71814;SDS011;59659;41.520;23.794;2024-01-25T11:00:58;19.23;;;10.65;;
71814;SDS011;59659;41.520;23.794;2024-01-25T11:02:10;22.35;;;11.45;;
71814;SDS011;59659;41.520;23.794;2024-01-25T11:05:29;17.98;;;9.60;;
71814;SDS011;59659;41.520;23.794;2024-01-25T11:06:42;12.50;;;9.43;;
71814;SDS011;59659;41.520;23.794;2024-01-25T11:07:54;21.45;;;8.07;;
71814;SDS011;59659;41.520;23.794;2024-01-25T11:09:07;17.33;;;8.80;;
71814;SDS011;59659;41.520;23.794;2024-01-25T11:10:20;13.73;;;6.50;;
71814;SDS011;59659;41.520;23.794;2024-01-25T11:11:32;12.68;;;5.50;;
71814;SDS011;59659;41.520;23.794;2024-01-25T11:12:56;8.40;;;4.20;;
71814;SDS011;59659;41.520;23.794;2024-01-25T11:14:11;16.52;;;6.20;;
71814;SDS011;59659;41.520;23.794;2024-01-25T11:15:44;13.20;;;7.03;;
71814;SDS011;59659;41.520;23.794;2024-01-25T11:16:54;20.67;;;8.77;;
71814;SDS011;59659;41.520;23.794;2024-01-25T11:18:07;11.98;;;5.05;;
71814;SDS011;59659;41.520;23.794;2024-01-25T11:19:21;13.88;;;5.43;;
71814;SDS011;59659;41.520;23.794;2024-01-25T11:20:34;10.68;;;5.25;;
71814;SDS011;59659;41.520;23.794;2024-01-25T11:21:46;8.68;;;5.38;;
71814;SDS011;59659;41.520;23.794;2024-01-25T11:23:02;21.95;;;8.18;;
71814;SDS011;59659;41.520;23.794;2024-01-25T11:24:23;16.10;;;7.30;;
71814;SDS011;59659;41.520;23.794;2024-01-25T11:25:37;8.52;;;5.00;;
71814;SDS011;59659;41.520;23.794;2024-01-25T11:26:49;6.93;;;4.43;;
71814;SDS011;59659;41.520;23.794;2024-01-25T11:28:01;9.95;;;3.45;;
71814;SDS011;59659;41.520;23.794;2024-01-25T11:29:14;8.20;;;3.95;;
71814;SDS011;59659;41.520;23.794;2024-01-25T11:30:28;8.23;;;2.92;;
71814;SDS011;59659;41.520;23.794;2024-01-25T11:31:40;9.07;;;3.55;;
71814;SDS011;59659;41.520;23.794;2024-01-25T11:32:52;2.72;;;1.83;;
71814;SDS011;59659;41.520;23.794;2024-01-25T11:34:03;5.10;;;2.92;;
71814;SDS011;59659;41.520;23.794;2024-01-25T11:35:15;2.42;;;1.30;;
71814;SDS011;59659;41.520;23.794;2024-01-25T11:36:32;7.57;;;1.65;;
71814;SDS011;59659;41.520;23.794;2024-01-25T11:37:48;18.90;;;1.88;;
71814;SDS011;59659;41.520;23.794;2024-01-25T11:38:59;1.40;;;0.95;;
71814;SDS011;59659;41.520;23.794;2024-01-25T11:40:11;2.13;;;0.90;;
71814;SDS011;59659;41.520;23.794;2024-01-25T11:41:23;2.20;;;0.77;;
71814;SDS011;59659;41.520;23.794;2024-01-25T11:42:35;1.83;;;0.98;;
71814;SDS011;59659;41.520;23.794;2024-01-25T11:43:50;4.00;;;1.48;;
71814;SDS011;59659;41.520;23.794;2024-01-25T11:45:01;3.55;;;1.60;;
71814;SDS011;59659;41.520;23.794;2024-01-25T11:46:13;2.22;;;1.80;;
71814;SDS011;59659;41.520;23.794;2024-01-25T11:47:25;2.22;;;1.15;;
71814;SDS011;59659;41.520;23.794;2024-01-25T11:48:38;2.97;;;1.17;;
71814;SDS011;59659;41.520;23.794;2024-01-25T11:49:50;3.30;;;1.75;;
71814;SDS011;59659;41.520;23.794;2024-01-25T11:51:02;3.80;;;2.00;;
71814;SDS011;59659;41.520;23.794;2024-01-25T11:52:13;3.95;;;1.13;;
71814;SDS011;59659;41.520;23.794;2024-01-25T11:53:26;3.22;;;0.77;;
71814;SDS011;59659;41.520;23.794;2024-01-25T11:54:38;6.72;;;1.23;;
71814;SDS011;59659;41.520;23.794;2024-01-25T11:55:49;4.25;;;1.35;;
71814;SDS011;59659;41.520;23.794;2024-01-25T11:57:01;4.25;;;0.85;;
71814;SDS011;59659;41.520;23.794;2024-01-25T11:58:13;4.07;;;1.10;;
71814;SDS011;59659;41.520;23.794;2024-01-25T11:59:24;1.30;;;0.98;;
71814;SDS011;59659;41.520;23.794;2024-01-25T12:00:36;4.03;;;1.42;;
71814;SDS011;59659;41.520;23.794;2024-01-25T12:01:48;1.60;;;1.17;;
71814;SDS011;59659;41.520;23.794;2024-01-25T12:03:01;4.95;;;1.88;;
71814;SDS011;59659;41.520;23.794;2024-01-25T12:04:14;4.30;;;1.98;;
71814;SDS011;59659;41.520;23.794;2024-01-25T12:05:25;4.70;;;1.40;;
71814;SDS011;59659;41.520;23.794;2024-01-25T12:06:37;3.00;;;1.45;;
71814;SDS011;59659;41.520;23.794;2024-01-25T12:07:50;5.15;;;1.10;;
71814;SDS011;59659;41.520;23.794;2024-01-25T12:09:11;6.07;;;2.13;;
71814;SDS011;59659;41.520;23.794;2024-01-25T12:10:24;2.15;;;1.25;;
71814;SDS011;59659;41.520;23.794;2024-01-25T12:11:38;7.10;;;1.83;;
71814;SDS011;59659;41.520;23.794;2024-01-25T12:12:50;5.05;;;2.88;;
71814;SDS011;59659;41.520;23.794;2024-01-25T12:14:02;1.60;;;1.33;;
71814;SDS011;59659;41.520;23.794;2024-01-25T12:15:13;5.97;;;2.33;;
71814;SDS011;59659;41.520;23.794;2024-01-25T12:16:25;4.78;;;2.13;;
71814;SDS011;59659;41.520;23.794;2024-01-25T12:17:36;1.65;;;1.17;;
71814;SDS011;59659;41.520;23.794;2024-01-25T12:18:50;2.70;;;1.77;;
71814;SDS011;59659;41.520;23.794;2024-01-25T12:20:02;3.42;;;1.55;;
71814;SDS011;59659;41.520;23.794;2024-01-25T12:21:15;4.18;;;2.00;;
71814;SDS011;59659;41.520;23.794;2024-01-25T12:22:26;5.35;;;1.30;;
71814;SDS011;59659;41.520;23.794;2024-01-25T12:23:39;2.67;;;1.67;;
71814;SDS011;59659;41.520;23.794;2024-01-25T12:24:54;1.90;;;1.45;;
71814;SDS011;59659;41.520;23.794;2024-01-25T12:26:11;4.55;;;1.35;;
71814;SDS011;59659;41.520;23.794;2024-01-25T12:27:24;3.65;;;1.58;;
71814;SDS011;59659;41.520;23.794;2024-01-25T12:28:35;3.70;;;1.35;;
71814;SDS011;59659;41.520;23.794;2024-01-25T12:29:48;4.95;;;1.70;;
71814;SDS011;59659;41.520;23.794;2024-01-25T12:31:00;6.72;;;1.42;;
71814;SDS011;59659;41.520;23.794;2024-01-25T12:32:12;4.45;;;1.73;;
71814;SDS011;59659;41.520;23.794;2024-01-25T12:33:25;4.78;;;1.13;;
71814;SDS011;59659;41.520;23.794;2024-01-25T12:34:39;2.03;;;1.83;;
71814;SDS011;59659;41.520;23.794;2024-01-25T12:35:53;2.60;;;1.40;;
71814;SDS011;59659;41.520;23.794;2024-01-25T12:37:07;3.70;;;1.92;;
71814;SDS011;59659;41.520;23.794;2024-01-25T12:38:20;5.47;;;1.80;;
71814;SDS011;59659;41.520;23.794;2024-01-25T12:39:32;5.40;;;1.60;;
71814;SDS011;59659;41.520;23.794;2024-01-25T12:40:46;3.50;;;2.03;;
71814;SDS011;59659;41.520;23.794;2024-01-25T12:41:58;4.18;;;1.77;;
71814;SDS011;59659;41.520;23.794;2024-01-25T12:43:09;3.55;;;1.73;;
71814;SDS011;59659;41.520;23.794;2024-01-25T12:44:21;3.13;;;0.90;;
71814;SDS011;59659;41.520;23.794;2024-01-25T12:45:33;4.82;;;1.35;;
71814;SDS011;59659;41.520;23.794;2024-01-25T12:46:44;3.50;;;1.40;;
71814;SDS011;59659;41.520;23.794;2024-01-25T12:47:56;2.25;;;1.63;;
71814;SDS011;59659;41.520;23.794;2024-01-25T12:49:08;6.03;;;1.80;;
71814;SDS011;59659;41.520;23.794;2024-01-25T12:50:19;2.90;;;1.23;;
71814;SDS011;59659;41.520;23.794;2024-01-25T12:51:31;8.45;;;1.83;;
71814;SDS011;59659;41.520;23.794;2024-01-25T12:52:43;5.70;;;2.15;;
71814;SDS011;59659;41.520;23.794;2024-01-25T12:53:54;5.53;;;1.85;;
71814;SDS011;59659;41.520;23.794;2024-01-25T12:55:06;2.42;;;1.13;;
71814;SDS011;59659;41.520;23.794;2024-01-25T12:56:18;1.88;;;1.05;;
71814;SDS011;59659;41.520;23.794;2024-01-25T12:57:30;2.00;;;1.13;;
71814;SDS011;59659;41.520;23.794;2024-01-25T12:58:42;2.67;;;1.27;;